VOE4TB LEAS-LPPR
Flight info
| Callsign | VOE4TB |
|---|---|
| Flight time | 0h 47m |
| Altitude | 23000 |
| Route | KUVAN N872 RALUS DCT BELDU DCT INKIT |
| Aircraft | A320/M-SDE3FGHIRWY/LB1 |
Departure
| Time | 2026-05-01 10:10 |
|---|---|
| Airport | Asturias Airport (LEAS) |
Arrival
| Time | 2026-05-01 10:58 |
|---|---|
| Airport | Francisco de Sá Carneiro Airport (LPPR) |
| Time | Latitude | Longitude | Altitude | Speed | Heading |
|---|---|---|---|---|---|
| 2026-05-01 09:24 | 43.56027 | -6.03413 | 426 ft | 0 kts | 145° |
| 2026-05-01 09:40 | 43.56028 | -6.03413 | 426 ft | 0 kts | 145° |
| 2026-05-01 10:06 | 43.56027 | -6.03402 | 426 ft | 2 kts | 92° |
| 2026-05-01 10:06 | 43.56069 | -6.03392 | 426 ft | 10 kts | 2° |
| 2026-05-01 10:06 | 43.56081 | -6.03325 | 426 ft | 8 kts | 104° |
| 2026-05-01 10:07 | 43.56072 | -6.03258 | 426 ft | 6 kts | 84° |
| 2026-05-01 10:07 | 43.56122 | -6.03173 | 422 ft | 14 kts | 83° |
| 2026-05-01 10:07 | 43.56093 | -6.03036 | 420 ft | 16 kts | 109° |
| 2026-05-01 10:07 | 43.56053 | -6.02871 | 422 ft | 20 kts | 108° |
| 2026-05-01 10:08 | 43.55959 | -6.02472 | 419 ft | 17 kts | 109° |
| 2026-05-01 10:08 | 43.55962 | -6.02318 | 426 ft | 14 kts | 68° |
| 2026-05-01 10:08 | 43.55965 | -6.02309 | 421 ft | 2 kts | 68° |
| 2026-05-01 10:09 | 43.55993 | -6.02234 | 423 ft | 12 kts | 56° |
| 2026-05-01 10:09 | 43.56070 | -6.02253 | 419 ft | 14 kts | 306° |
| 2026-05-01 10:09 | 43.56083 | -6.02304 | 415 ft | 0 kts | 286° |
| 2026-05-01 10:09 | 43.56084 | -6.02309 | 415 ft | 4 kts | 286° |
| 2026-05-01 10:10 | 43.56164 | -6.02643 | 427 ft | 81 kts | 288° |
| 2026-05-01 10:10 | 43.56412 | -6.03690 | 414 ft | 146 kts | 288° |
| 2026-05-01 10:10 | 43.57196 | -6.06558 | 1645 ft | 162 kts | 291° |
| 2026-05-01 10:11 | 43.57523 | -6.08054 | 2361 ft | 164 kts | 282° |
| 2026-05-01 10:11 | 43.57807 | -6.09638 | 2874 ft | 180 kts | 287° |
| 2026-05-01 10:11 | 43.58202 | -6.11386 | 3261 ft | 202 kts | 288° |
| 2026-05-01 10:11 | 43.58664 | -6.13322 | 3724 ft | 220 kts | 288° |
| 2026-05-01 10:12 | 43.59123 | -6.15356 | 4418 ft | 225 kts | 279° |
| 2026-05-01 10:12 | 43.58916 | -6.17454 | 5243 ft | 225 kts | 238° |
| 2026-05-01 10:12 | 43.56308 | -6.19609 | 7002 ft | 225 kts | 197° |
| 2026-05-01 10:13 | 43.54810 | -6.20244 | 7874 ft | 226 kts | 195° |
| 2026-05-01 10:13 | 43.53288 | -6.20865 | 8721 ft | 229 kts | 195° |
| 2026-05-01 10:13 | 43.51776 | -6.21491 | 9572 ft | 232 kts | 196° |
| 2026-05-01 10:14 | 43.48662 | -6.22819 | 11199 ft | 237 kts | 197° |
| 2026-05-01 10:14 | 43.47077 | -6.23490 | 11996 ft | 240 kts | 193° |
| 2026-05-01 10:14 | 43.45381 | -6.23913 | 12461 ft | 259 kts | 190° |
| 2026-05-01 10:14 | 43.43516 | -6.24340 | 12798 ft | 283 kts | 190° |
| 2026-05-01 10:15 | 43.41490 | -6.24800 | 13094 ft | 307 kts | 190° |
| 2026-05-01 10:15 | 43.39305 | -6.25295 | 13359 ft | 330 kts | 190° |
| 2026-05-01 10:15 | 43.36983 | -6.25824 | 13840 ft | 344 kts | 190° |
| 2026-05-01 10:15 | 43.34598 | -6.26365 | 14501 ft | 349 kts | 190° |
| 2026-05-01 10:16 | 43.32190 | -6.26910 | 15218 ft | 353 kts | 190° |
| 2026-05-01 10:16 | 43.29788 | -6.27453 | 15924 ft | 356 kts | 190° |
| 2026-05-01 10:16 | 43.24861 | -6.28580 | 17345 ft | 362 kts | 191° |
| 2026-05-01 10:17 | 43.22365 | -6.29151 | 18047 ft | 365 kts | 191° |
| 2026-05-01 10:17 | 43.17310 | -6.30302 | 19332 ft | 371 kts | 191° |
| 2026-05-01 10:17 | 43.14747 | -6.30881 | 19923 ft | 375 kts | 191° |
| 2026-05-01 10:18 | 43.09692 | -6.32699 | 21149 ft | 379 kts | 205° |
| 2026-05-01 10:18 | 43.07332 | -6.34342 | 21777 ft | 382 kts | 208° |
| 2026-05-01 10:18 | 43.04965 | -6.36024 | 22368 ft | 385 kts | 208° |
| 2026-05-01 10:19 | 43.02605 | -6.37701 | 22921 ft | 389 kts | 208° |
| 2026-05-01 10:19 | 43.00199 | -6.39405 | 23486 ft | 392 kts | 208° |
| 2026-05-01 10:19 | 42.97765 | -6.41125 | 23974 ft | 395 kts | 208° |
| 2026-05-01 10:20 | 42.92846 | -6.44585 | 24886 ft | 400 kts | 208° |
| 2026-05-01 10:20 | 42.90367 | -6.46329 | 25310 ft | 402 kts | 208° |
| 2026-05-01 10:20 | 42.87877 | -6.48085 | 25751 ft | 404 kts | 208° |
| 2026-05-01 10:20 | 42.85370 | -6.49850 | 26164 ft | 407 kts | 208° |
| 2026-05-01 10:21 | 42.82849 | -6.51624 | 26585 ft | 409 kts | 208° |
| 2026-05-01 10:21 | 42.77763 | -6.55190 | 27379 ft | 414 kts | 208° |
| 2026-05-01 10:21 | 42.75217 | -6.56949 | 27765 ft | 416 kts | 208° |
| 2026-05-01 10:22 | 42.70013 | -6.60507 | 28521 ft | 421 kts | 208° |
| 2026-05-01 10:22 | 42.64748 | -6.64109 | 29238 ft | 426 kts | 208° |
| 2026-05-01 10:23 | 42.62096 | -6.65923 | 29578 ft | 428 kts | 208° |
| 2026-05-01 10:23 | 42.56746 | -6.69572 | 30224 ft | 432 kts | 208° |
| 2026-05-01 10:23 | 42.54051 | -6.71406 | 30495 ft | 434 kts | 208° |
| 2026-05-01 10:24 | 42.48682 | -6.75067 | 31016 ft | 436 kts | 208° |
| 2026-05-01 10:24 | 42.43260 | -6.78760 | 31148 ft | 435 kts | 208° |
| 2026-05-01 10:25 | 42.32458 | -6.86087 | 31149 ft | 434 kts | 208° |
| 2026-05-01 10:26 | 42.27060 | -6.89738 | 31153 ft | 434 kts | 208° |
| 2026-05-01 10:27 | 42.16287 | -6.96958 | 31152 ft | 434 kts | 208° |
| 2026-05-01 10:28 | 42.08133 | -7.02259 | 31151 ft | 432 kts | 207° |
| 2026-05-01 10:28 | 42.02796 | -7.05722 | 29860 ft | 422 kts | 207° |
| 2026-05-01 10:28 | 42.00159 | -7.07428 | 29137 ft | 418 kts | 207° |
| 2026-05-01 10:29 | 41.94986 | -7.10802 | 27809 ft | 409 kts | 211° |
| 2026-05-01 10:29 | 41.92626 | -7.12890 | 27661 ft | 407 kts | 219° |
| 2026-05-01 10:30 | 41.88351 | -7.17799 | 27396 ft | 407 kts | 221° |
| 2026-05-01 10:30 | 41.84062 | -7.22731 | 27148 ft | 406 kts | 221° |
| 2026-05-01 10:31 | 41.79789 | -7.27650 | 26896 ft | 404 kts | 221° |
| 2026-05-01 10:31 | 41.75531 | -7.32558 | 26643 ft | 403 kts | 221° |
| 2026-05-01 10:32 | 41.71283 | -7.37431 | 26393 ft | 402 kts | 221° |
| 2026-05-01 10:32 | 41.69159 | -7.39859 | 26268 ft | 401 kts | 221° |
| 2026-05-01 10:32 | 41.64921 | -7.44695 | 26021 ft | 400 kts | 221° |
| 2026-05-01 10:33 | 41.60698 | -7.49520 | 25775 ft | 398 kts | 221° |
| 2026-05-01 10:33 | 41.56525 | -7.54289 | 25536 ft | 397 kts | 221° |
| 2026-05-01 10:34 | 41.54420 | -7.56690 | 25402 ft | 396 kts | 221° |
| 2026-05-01 10:34 | 41.52322 | -7.59077 | 25232 ft | 397 kts | 221° |
| 2026-05-01 10:34 | 41.50223 | -7.61464 | 24079 ft | 398 kts | 221° |
| 2026-05-01 10:35 | 41.46035 | -7.66217 | 23009 ft | 384 kts | 221° |
| 2026-05-01 10:35 | 41.44019 | -7.68499 | 22533 ft | 378 kts | 221° |
| 2026-05-01 10:35 | 41.42024 | -7.70755 | 22066 ft | 373 kts | 220° |
| 2026-05-01 10:35 | 41.40057 | -7.72977 | 21603 ft | 368 kts | 220° |
| 2026-05-01 10:36 | 41.36168 | -7.77268 | 20709 ft | 360 kts | 215° |
| 2026-05-01 10:36 | 41.33998 | -7.78918 | 20208 ft | 359 kts | 206° |
| 2026-05-01 10:36 | 41.31748 | -7.80339 | 19707 ft | 357 kts | 206° |
| 2026-05-01 10:37 | 41.29516 | -7.81757 | 19198 ft | 355 kts | 206° |
| 2026-05-01 10:37 | 41.25098 | -7.84577 | 18112 ft | 354 kts | 206° |
| 2026-05-01 10:37 | 41.22887 | -7.85985 | 17570 ft | 351 kts | 206° |
| 2026-05-01 10:38 | 41.20709 | -7.87429 | 17032 ft | 349 kts | 211° |
| 2026-05-01 10:38 | 41.18776 | -7.89350 | 16523 ft | 347 kts | 224° |
| 2026-05-01 10:38 | 41.17221 | -7.91799 | 15987 ft | 347 kts | 236° |
| 2026-05-01 10:38 | 41.16099 | -7.94629 | 15470 ft | 347 kts | 244° |
| 2026-05-01 10:39 | 41.15095 | -7.97541 | 14943 ft | 347 kts | 244° |
| 2026-05-01 10:39 | 41.13980 | -8.00369 | 14430 ft | 345 kts | 233° |
| 2026-05-01 10:39 | 41.12304 | -8.02625 | 13913 ft | 344 kts | 220° |
| 2026-05-01 10:39 | 41.10472 | -8.04658 | 13343 ft | 343 kts | 219° |
| 2026-05-01 10:40 | 41.08635 | -8.06673 | 12756 ft | 342 kts | 219° |
| 2026-05-01 10:40 | 41.06807 | -8.08676 | 12200 ft | 340 kts | 219° |
| 2026-05-01 10:40 | 41.05019 | -8.10635 | 11661 ft | 337 kts | 219° |
| 2026-05-01 10:40 | 41.03224 | -8.12602 | 11260 ft | 331 kts | 219° |
| 2026-05-01 10:41 | 41.01459 | -8.14537 | 11161 ft | 328 kts | 219° |
| 2026-05-01 10:41 | 40.99701 | -8.16464 | 11182 ft | 329 kts | 219° |
| 2026-05-01 10:41 | 40.96176 | -8.20329 | 11186 ft | 329 kts | 219° |
| 2026-05-01 10:42 | 40.94418 | -8.22263 | 11191 ft | 329 kts | 219° |
| 2026-05-01 10:42 | 40.92633 | -8.24156 | 11179 ft | 327 kts | 213° |
| 2026-05-01 10:42 | 40.90600 | -8.25274 | 11167 ft | 310 kts | 191° |
| 2026-05-01 10:42 | 40.88486 | -8.25412 | 10976 ft | 299 kts | 180° |
| 2026-05-01 10:43 | 40.86436 | -8.25342 | 10760 ft | 291 kts | 179° |
| 2026-05-01 10:43 | 40.84460 | -8.25260 | 10525 ft | 285 kts | 179° |
| 2026-05-01 10:43 | 40.82501 | -8.25179 | 10287 ft | 279 kts | 179° |
| 2026-05-01 10:43 | 40.80580 | -8.25100 | 10048 ft | 273 kts | 179° |
| 2026-05-01 10:44 | 40.78702 | -8.25024 | 9769 ft | 268 kts | 179° |
| 2026-05-01 10:44 | 40.76856 | -8.24951 | 9528 ft | 263 kts | 179° |
| 2026-05-01 10:44 | 40.75042 | -8.24898 | 9261 ft | 258 kts | 184° |
| 2026-05-01 10:44 | 40.73381 | -8.25520 | 9004 ft | 251 kts | 212° |
| 2026-05-01 10:45 | 40.72195 | -8.27136 | 8746 ft | 246 kts | 241° |
| 2026-05-01 10:45 | 40.71527 | -8.29190 | 8492 ft | 241 kts | 248° |
| 2026-05-01 10:45 | 40.70968 | -8.31254 | 8244 ft | 237 kts | 249° |
| 2026-05-01 10:45 | 40.70440 | -8.33256 | 7993 ft | 232 kts | 249° |
| 2026-05-01 10:46 | 40.69919 | -8.35245 | 7746 ft | 228 kts | 249° |
| 2026-05-01 10:46 | 40.69413 | -8.37201 | 7505 ft | 224 kts | 249° |
| 2026-05-01 10:46 | 40.68912 | -8.39127 | 7255 ft | 221 kts | 249° |
| 2026-05-01 10:46 | 40.68415 | -8.41043 | 7017 ft | 221 kts | 249° |
| 2026-05-01 10:47 | 40.67920 | -8.42954 | 6774 ft | 220 kts | 249° |
| 2026-05-01 10:47 | 40.67439 | -8.44869 | 6524 ft | 220 kts | 255° |
| 2026-05-01 10:47 | 40.67367 | -8.46878 | 6283 ft | 221 kts | 272° |
| 2026-05-01 10:47 | 40.67471 | -8.48898 | 6186 ft | 221 kts | 272° |
| 2026-05-01 10:48 | 40.67580 | -8.50918 | 6191 ft | 222 kts | 272° |
| 2026-05-01 10:48 | 40.67690 | -8.52951 | 6190 ft | 222 kts | 272° |
| 2026-05-01 10:48 | 40.67801 | -8.54977 | 6192 ft | 222 kts | 272° |
| 2026-05-01 10:48 | 40.68069 | -8.57014 | 6200 ft | 242 kts | 290° |
| 2026-05-01 10:49 | 40.69173 | -8.58868 | 6192 ft | 273 kts | 325° |
| 2026-05-01 10:49 | 40.70953 | -8.59689 | 6196 ft | 280 kts | 351° |
| 2026-05-01 10:49 | 40.72894 | -8.59975 | 6191 ft | 281 kts | 355° |
| 2026-05-01 10:49 | 40.74848 | -8.60148 | 6191 ft | 282 kts | 356° |
| 2026-05-01 10:50 | 40.76807 | -8.60288 | 6188 ft | 282 kts | 356° |
| 2026-05-01 10:50 | 40.78768 | -8.60435 | 6192 ft | 282 kts | 356° |
| 2026-05-01 10:50 | 40.80726 | -8.60601 | 6051 ft | 283 kts | 356° |
| 2026-05-01 10:50 | 40.82674 | -8.60785 | 5903 ft | 280 kts | 355° |
| 2026-05-01 10:51 | 40.84621 | -8.60980 | 5842 ft | 281 kts | 355° |
| 2026-05-01 10:51 | 40.86573 | -8.61182 | 5780 ft | 281 kts | 355° |
| 2026-05-01 10:51 | 40.88462 | -8.61381 | 5720 ft | 281 kts | 355° |
| 2026-05-01 10:51 | 40.90359 | -8.61580 | 5653 ft | 275 kts | 355° |
| 2026-05-01 10:52 | 40.92252 | -8.61777 | 5593 ft | 260 kts | 355° |
| 2026-05-01 10:52 | 40.94015 | -8.61960 | 5531 ft | 250 kts | 355° |
| 2026-05-01 10:52 | 40.95740 | -8.62142 | 5471 ft | 248 kts | 355° |
| 2026-05-01 10:52 | 40.97401 | -8.62316 | 5404 ft | 239 kts | 355° |
| 2026-05-01 10:53 | 40.99052 | -8.62489 | 5178 ft | 237 kts | 355° |
| 2026-05-01 10:53 | 41.00687 | -8.62662 | 4881 ft | 235 kts | 355° |
| 2026-05-01 10:53 | 41.02306 | -8.62831 | 4566 ft | 233 kts | 355° |
| 2026-05-01 10:53 | 41.03943 | -8.63003 | 4119 ft | 238 kts | 355° |
| 2026-05-01 10:54 | 41.05599 | -8.63177 | 3767 ft | 239 kts | 355° |
| 2026-05-01 10:54 | 41.07236 | -8.63499 | 3440 ft | 237 kts | 349° |
| 2026-05-01 10:54 | 41.08852 | -8.63909 | 3108 ft | 237 kts | 348° |
| 2026-05-01 10:54 | 41.10452 | -8.64334 | 2792 ft | 231 kts | 348° |
| 2026-05-01 10:55 | 41.11983 | -8.64745 | 2491 ft | 219 kts | 347° |
| 2026-05-01 10:55 | 41.13445 | -8.65135 | 2208 ft | 209 kts | 347° |
| 2026-05-01 10:55 | 41.14841 | -8.65504 | 1975 ft | 201 kts | 348° |
| 2026-05-01 10:55 | 41.16190 | -8.65858 | 1665 ft | 192 kts | 348° |
| 2026-05-01 10:56 | 41.17461 | -8.66190 | 1417 ft | 180 kts | 348° |
| 2026-05-01 10:56 | 41.18647 | -8.66500 | 1169 ft | 171 kts | 348° |
| 2026-05-01 10:56 | 41.19774 | -8.66794 | 927 ft | 157 kts | 347° |
| 2026-05-01 10:56 | 41.20806 | -8.67063 | 741 ft | 147 kts | 346° |
| 2026-05-01 10:57 | 41.21796 | -8.67317 | 579 ft | 142 kts | 346° |
| 2026-05-01 10:57 | 41.22772 | -8.67524 | 425 ft | 139 kts | 343° |
| 2026-05-01 10:57 | 41.23728 | -8.67837 | 250 ft | 136 kts | 348° |
| 2026-05-01 10:57 | 41.24562 | -8.68061 | 238 ft | 106 kts | 349° |
| 2026-05-01 10:58 | 41.25162 | -8.68227 | 234 ft | 70 kts | 348° |
| 2026-05-01 10:58 | 41.25531 | -8.68319 | 235 ft | 34 kts | 352° |
| 2026-05-01 10:58 | 41.25594 | -8.68256 | 236 ft | 10 kts | 82° |
| 2026-05-01 10:58 | 41.25611 | -8.68131 | 235 ft | 12 kts | 92° |
| 2026-05-01 10:59 | 41.25584 | -8.68090 | 237 ft | 5 kts | 163° |
| 2026-05-01 10:59 | 41.25535 | -8.68082 | 235 ft | 13 kts | 173° |
| 2026-05-01 10:59 | 41.25418 | -8.68053 | 235 ft | 19 kts | 169° |
| 2026-05-01 10:59 | 41.25298 | -8.68020 | 235 ft | 16 kts | 167° |
| 2026-05-01 11:00 | 41.25194 | -8.67989 | 235 ft | 15 kts | 167° |
| 2026-05-01 11:00 | 41.25098 | -8.67961 | 235 ft | 13 kts | 172° |
| 2026-05-01 11:00 | 41.25011 | -8.67946 | 235 ft | 12 kts | 172° |
| 2026-05-01 11:00 | 41.24932 | -8.67927 | 235 ft | 11 kts | 168° |
| 2026-05-01 11:01 | 41.24863 | -8.67897 | 235 ft | 10 kts | 153° |
| 2026-05-01 11:01 | 41.24804 | -8.67856 | 238 ft | 9 kts | 152° |
| 2026-05-01 11:01 | 41.24750 | -8.67819 | 239 ft | 8 kts | 159° |
| 2026-05-01 11:01 | 41.24695 | -8.67807 | 235 ft | 8 kts | 172° |
| 2026-05-01 11:02 | 41.24623 | -8.67787 | 237 ft | 18 kts | 167° |
| 2026-05-01 11:02 | 41.24490 | -8.67751 | 235 ft | 21 kts | 169° |
| 2026-05-01 11:02 | 41.24338 | -8.67717 | 235 ft | 23 kts | 170° |
| 2026-05-01 11:02 | 41.24240 | -8.67597 | 239 ft | 15 kts | 129° |
| 2026-05-01 11:03 | 41.24151 | -8.67559 | 235 ft | 13 kts | 170° |
| 2026-05-01 11:03 | 41.24045 | -8.67535 | 235 ft | 20 kts | 169° |
| 2026-05-01 11:03 | 41.23899 | -8.67496 | 238 ft | 23 kts | 168° |
| 2026-05-01 11:03 | 41.23860 | -8.67448 | 235 ft | 7 kts | 82° |
| 2026-05-01 11:04 | 41.23869 | -8.67391 | 235 ft | 5 kts | 78° |
| 2026-05-01 11:04 | 41.23870 | -8.67386 | 235 ft | 0 kts | 78° |
| 2026-05-01 11:04 | 41.23870 | -8.67384 | 235 ft | 0 kts | 78° |